Aeroporto :
LOGIN :

Iscrizione | Disclaimer

   EN    FR    IT 

 










Sommario :    VFR   VFR Marginale   IFR   IFR Intensivo   IFR Molto Intensivo
Visibilità : 
Base nubi : 
>= 8 km
>= 3000ft
5 / 8 km
1000 / 3000 ft
1500m / 5 km
500 / 1000 ft
800 / 1500m
200 / 500 ft
< 800m
< 200 ft
Simboli :   Temporali  Nebbia  Neve Forte  Precipitazioni Forti  Vento > 20 kt
SIGMETs :   Varie  Temporali  Ghiacco  Turbolenza  Onda orograficha  Ceneri Vulcaniche






- Altitudine del aeroporto : 137 ft
- Codice IATA : THN


ESGT - Trollhattan-Vanersborg

ULTIMO METAR :
  • 202350Z AUTO 23016KT 9999 -RA FEW005/// BKN014/// BKN019/// 05/03 Q0991

METARs OBSOLETI :
  • 202320Z AUTO 22018G28KT 9999 RA OVC012/// 06/04 Q0990
  • 202250Z AUTO 20019KT 6000 -RA BKN005/// OVC011/// 06/05 Q0990
  • 202220Z AUTO 20019G30KT 9000 RA SCT005/// BKN009/// BKN012/// 06/05 Q0990
  • 202150Z AUTO 20020G34KT 7000 RA FEW005/// BKN012/// OVC016/// 07/05 Q0990
  • 202120Z AUTO 20020G32KT 9999 RA BKN011/// BKN015/// OVC018/// 07/05 Q0991

Previsioni scadute.



MetMap, La meteo Aeronautica in un colpo d'occhio ! - Copyright ORBIFLY Dicembre 2007 - Disclaimer

ORBIFLY MET'MAP TEAM :

Programmazione e sviluppo : Alexandra Zaïnal
Concezione : Baudouin d'Aumeries
Aiuto per la programmazione : Marc-Olivier Méhu
Supporto tecnico e logistico : Manuel Goepfert
Aiuto per la traduzione : Arnaldo La Scala

Contatto : metmap@orbifly.com




FONTI E CREDITI :

   NOAA